Ana Sayfa
METAR-TAF:

METAR-TAF

Havaalanları :

Madrid Barajas Uluslararası Havalimanı

Madrid, İspanya

Enlem: 40-27N, Boylam: 003-33W, yükseklik: 609 m

Güncel hava durumu gözlemi

Rapor saat 08:00 UTC de 44 dakika önce yapıldı.
Rüzgar kuzeydan 13 kt, kuzey/kuzeybatı ve kuzeydoğu arasında değişken
Sıcaklık 13°C
Nem 58%
Basınç 1017 hPa
Görüş mesafesi 10 km veya daha fazla
1500 m altında bulut yok ve kümülonimbus yok

METAR: LEMD 200800Z 36013KT 330V040 CAVOK 13/05 Q1017 NOSIG

Saat: 10:44 (08:44 UTC)

Tahmin

Rapor saat 05:00 UTC de 3 saat ve 44 dakika önce yapıldı.
Ayın 20'si saat 06 UTC'den ayın 21'si saat 12 UTC'ye kadar geçerli Tahmin
Rüzgar kuzeydoğudan 9 kt
Görüş mesafesi 10 km veya daha fazla
1500 m altında bulut yok ve kümülonimbus yok
Olasılık 30% :
Geçici
ayın 20'si saat 06 UTC'den ayın 20'si saat 18 UTC'ye kadar
Rüzgar kuzeydoğudan 15 kt ve 28 kt'a kadar ani rüzgarlar

TAF: LEMD 200500Z 2006/2112 05009KT CAVOK TX20/2015Z TN07/2106Z PROB30 TEMPO 2006/2018 05015G28KT

4.000'den fazla havaalanı için hava durumu gözlemleri ve tahminleri (METAR ve TAF raporları).

Kullanılabilir istasyonlar harita üzerinde sarı ve kırmızı noktalarla gösterilir.

İstasyonun adını görmek için fareyi noktanın üzerinde gezdirin.

Sonrasında hava gözlem ve tahminlerini görmek için tıklayın.

Haritayı değiştirmek için: yaklaştırmak için siyah artı işaretli yeşil düğmeye ve uzaklaştırmak için de eksi işaretli düğmeye hızla tıklayın; bitişik haritalar için yeşil okları kullanın.


METAR-TAF: